Terminal Aerodrome Forecast
Issued by NWS Wilmington, NC

Home | Current Version | Previous Version | Text Only | Print | Product List | Glossary On
Versions: 1 2 3 4 5 6 7 8 9 10 11 12 13 14 15 16 17 18 19 20 21 22 23 24 25 26 27
000
FTUS42 KILM 050500
TAFMYR
TAF
KMYR 050531Z 0506/0606 22013KT P6SM SCT010 SCT060 WS010/22035KT
      TEMPO 0506/0508 4SM BR PRFG SCT003 BKN010
     FM050800 22011KT 2SM BR PRFG BKN003 WS010/22030KT
     FM051400 23014G24KT P6SM FEW002 SCT050
     FM052200 35013G22KT 5SM -SHRA OVC012
      AMD LTD TO CLD VIS AND WIND TIL 051100=

USA.gov is the U.S. government's official web portal to all federal, state and local government web resources and services.